sensor_id;sensor_type;location;lat;lon;timestamp;temperature;humidity
77056;SHT30;67471;44.918;8.614;2024-01-30T00:01:53;3.08;86.74
77056;SHT30;67471;44.918;8.614;2024-01-30T00:04:57;3.08;86.52
77056;SHT30;67471;44.918;8.614;2024-01-30T00:08:01;2.98;86.51
77056;SHT30;67471;44.918;8.614;2024-01-30T00:11:07;3.01;87.17
77056;SHT30;67471;44.918;8.614;2024-01-30T00:14:11;3.16;86.48
77056;SHT30;67471;44.918;8.614;2024-01-30T00:17:15;3.05;86.66
77056;SHT30;67471;44.918;8.614;2024-01-30T00:20:19;2.99;86.79
77056;SHT30;67471;44.918;8.614;2024-01-30T00:23:22;3.09;86.55
77056;SHT30;67471;44.918;8.614;2024-01-30T00:26:26;3.07;87.14
77056;SHT30;67471;44.918;8.614;2024-01-30T00:29:29;3.11;87.08
77056;SHT30;67471;44.918;8.614;2024-01-30T00:32:36;3.13;86.18
77056;SHT30;67471;44.918;8.614;2024-01-30T00:35:40;3.15;85.36
77056;SHT30;67471;44.918;8.614;2024-01-30T00:38:44;2.97;85.69
77056;SHT30;67471;44.918;8.614;2024-01-30T00:41:48;2.91;86.65
77056;SHT30;67471;44.918;8.614;2024-01-30T00:44:51;2.99;86.05
77056;SHT30;67471;44.918;8.614;2024-01-30T00:47:55;2.84;86.56
77056;SHT30;67471;44.918;8.614;2024-01-30T00:50:59;2.92;86.83
77056;SHT30;67471;44.918;8.614;2024-01-30T00:54:03;2.92;86.75
77056;SHT30;67471;44.918;8.614;2024-01-30T00:57:07;2.92;86.43
77056;SHT30;67471;44.918;8.614;2024-01-30T01:00:11;3.02;86.02
77056;SHT30;67471;44.918;8.614;2024-01-30T01:03:16;3.01;85.55
77056;SHT30;67471;44.918;8.614;2024-01-30T01:06:20;3.01;85.54
77056;SHT30;67471;44.918;8.614;2024-01-30T01:09:24;2.92;85.74
77056;SHT30;67471;44.918;8.614;2024-01-30T01:12:27;3.01;85.49
77056;SHT30;67471;44.918;8.614;2024-01-30T01:15:31;2.98;85.73
77056;SHT30;67471;44.918;8.614;2024-01-30T01:18:35;2.91;85.71
77056;SHT30;67471;44.918;8.614;2024-01-30T01:21:38;2.51;87.85
77056;SHT30;67471;44.918;8.614;2024-01-30T01:24:42;2.51;87.58
77056;SHT30;67471;44.918;8.614;2024-01-30T01:27:45;2.47;87.61
77056;SHT30;67471;44.918;8.614;2024-01-30T01:30:54;2.65;87.38
77056;SHT30;67471;44.918;8.614;2024-01-30T01:34:02;2.81;87.03
77056;SHT30;67471;44.918;8.614;2024-01-30T01:37:06;2.94;86.48
77056;SHT30;67471;44.918;8.614;2024-01-30T01:40:10;2.97;85.77
77056;SHT30;67471;44.918;8.614;2024-01-30T01:43:14;2.92;86.07
77056;SHT30;67471;44.918;8.614;2024-01-30T01:46:18;2.99;85.64
77056;SHT30;67471;44.918;8.614;2024-01-30T01:49:27;2.98;85.78
77056;SHT30;67471;44.918;8.614;2024-01-30T01:52:31;2.89;85.83
77056;SHT30;67471;44.918;8.614;2024-01-30T01:55:35;2.83;85.84
77056;SHT30;67471;44.918;8.614;2024-01-30T01:58:39;2.84;85.76
77056;SHT30;67471;44.918;8.614;2024-01-30T02:01:43;2.83;85.25
77056;SHT30;67471;44.918;8.614;2024-01-30T02:04:48;2.81;85.03
77056;SHT30;67471;44.918;8.614;2024-01-30T02:07:52;2.73;85.39
77056;SHT30;67471;44.918;8.614;2024-01-30T02:10:56;2.80;85.51
77056;SHT30;67471;44.918;8.614;2024-01-30T02:14:04;2.78;85.23
77056;SHT30;67471;44.918;8.614;2024-01-30T02:17:08;2.74;85.38
77056;SHT30;67471;44.918;8.614;2024-01-30T02:20:11;2.73;85.57
77056;SHT30;67471;44.918;8.614;2024-01-30T02:23:16;2.76;85.18
77056;SHT30;67471;44.918;8.614;2024-01-30T02:26:20;2.64;86.07
77056;SHT30;67471;44.918;8.614;2024-01-30T02:29:23;2.74;86.03
77056;SHT30;67471;44.918;8.614;2024-01-30T02:32:27;2.74;85.93
77056;SHT30;67471;44.918;8.614;2024-01-30T02:35:31;2.71;86.25
77056;SHT30;67471;44.918;8.614;2024-01-30T02:38:34;2.76;86.21
77056;SHT30;67471;44.918;8.614;2024-01-30T02:41:38;2.74;86.19
77056;SHT30;67471;44.918;8.614;2024-01-30T02:44:42;2.83;85.46
77056;SHT30;67471;44.918;8.614;2024-01-30T02:47:46;2.67;86.42
77056;SHT30;67471;44.918;8.614;2024-01-30T02:50:49;2.64;86.77
77056;SHT30;67471;44.918;8.614;2024-01-30T02:53:53;2.64;86.96
77056;SHT30;67471;44.918;8.614;2024-01-30T02:56:57;2.77;86.84
77056;SHT30;67471;44.918;8.614;2024-01-30T03:00:00;2.80;86.36
77056;SHT30;67471;44.918;8.614;2024-01-30T03:03:04;2.74;86.13
77056;SHT30;67471;44.918;8.614;2024-01-30T03:06:08;2.78;86.03
77056;SHT30;67471;44.918;8.614;2024-01-30T03:09:12;2.77;86.11
77056;SHT30;67471;44.918;8.614;2024-01-30T03:12:15;2.83;86.26
77056;SHT30;67471;44.918;8.614;2024-01-30T03:15:19;2.70;85.91
77056;SHT30;67471;44.918;8.614;2024-01-30T03:18:23;2.68;86.24
77056;SHT30;67471;44.918;8.614;2024-01-30T03:21:27;2.71;85.89
77056;SHT30;67471;44.918;8.614;2024-01-30T03:24:31;2.74;85.68
77056;SHT30;67471;44.918;8.614;2024-01-30T03:27:34;2.84;86.21
77056;SHT30;67471;44.918;8.614;2024-01-30T03:30:38;2.88;85.17
77056;SHT30;67471;44.918;8.614;2024-01-30T03:33:42;2.83;85.33
77056;SHT30;67471;44.918;8.614;2024-01-30T03:36:46;2.76;85.06
77056;SHT30;67471;44.918;8.614;2024-01-30T03:39:49;2.71;85.48
77056;SHT30;67471;44.918;8.614;2024-01-30T03:42:54;2.68;85.69
77056;SHT30;67471;44.918;8.614;2024-01-30T03:45:57;2.58;86.05
77056;SHT30;67471;44.918;8.614;2024-01-30T03:49:01;2.58;86.22
77056;SHT30;67471;44.918;8.614;2024-01-30T03:52:05;2.54;85.89
77056;SHT30;67471;44.918;8.614;2024-01-30T03:55:08;2.60;85.96
77056;SHT30;67471;44.918;8.614;2024-01-30T03:58:12;2.58;86.09
77056;SHT30;67471;44.918;8.614;2024-01-30T04:01:16;2.68;85.83
77056;SHT30;67471;44.918;8.614;2024-01-30T04:04:20;2.65;86.07
77056;SHT30;67471;44.918;8.614;2024-01-30T04:07:23;2.58;85.88
77056;SHT30;67471;44.918;8.614;2024-01-30T04:10:27;2.67;85.84
77056;SHT30;67471;44.918;8.614;2024-01-30T04:13:31;2.62;85.84
77056;SHT30;67471;44.918;8.614;2024-01-30T04:16:35;2.62;85.86
77056;SHT30;67471;44.918;8.614;2024-01-30T04:19:41;2.64;86.23
77056;SHT30;67471;44.918;8.614;2024-01-30T04:22:45;2.67;86.34
77056;SHT30;67471;44.918;8.614;2024-01-30T04:25:48;2.65;85.91
77056;SHT30;67471;44.918;8.614;2024-01-30T04:28:52;2.74;86.10
77056;SHT30;67471;44.918;8.614;2024-01-30T04:31:56;2.65;86.31
77056;SHT30;67471;44.918;8.614;2024-01-30T04:34:59;2.56;86.43
77056;SHT30;67471;44.918;8.614;2024-01-30T04:38:03;2.58;86.82
77056;SHT30;67471;44.918;8.614;2024-01-30T04:41:07;2.57;86.67
77056;SHT30;67471;44.918;8.614;2024-01-30T04:44:11;2.57;86.38
77056;SHT30;67471;44.918;8.614;2024-01-30T04:47:15;2.62;86.36
77056;SHT30;67471;44.918;8.614;2024-01-30T04:50:19;2.58;86.07
77056;SHT30;67471;44.918;8.614;2024-01-30T04:53:22;2.58;86.25
77056;SHT30;67471;44.918;8.614;2024-01-30T04:56:26;2.51;86.29
77056;SHT30;67471;44.918;8.614;2024-01-30T04:59:30;2.58;86.31
77056;SHT30;67471;44.918;8.614;2024-01-30T05:02:34;2.58;85.80
77056;SHT30;67471;44.918;8.614;2024-01-30T05:05:37;2.60;85.63
77056;SHT30;67471;44.918;8.614;2024-01-30T05:08:41;2.62;85.99
77056;SHT30;67471;44.918;8.614;2024-01-30T05:11:45;2.54;85.60
77056;SHT30;67471;44.918;8.614;2024-01-30T05:14:49;2.41;85.34
77056;SHT30;67471;44.918;8.614;2024-01-30T05:17:53;2.32;86.05
77056;SHT30;67471;44.918;8.614;2024-01-30T05:20:56;2.32;86.05
77056;SHT30;67471;44.918;8.614;2024-01-30T05:24:00;2.27;86.25
77056;SHT30;67471;44.918;8.614;2024-01-30T05:27:04;2.23;86.25
77056;SHT30;67471;44.918;8.614;2024-01-30T05:30:08;2.23;86.41
77056;SHT30;67471;44.918;8.614;2024-01-30T05:33:12;2.26;86.29
77056;SHT30;67471;44.918;8.614;2024-01-30T05:36:16;2.25;85.59
77056;SHT30;67471;44.918;8.614;2024-01-30T05:39:20;2.33;85.59
77056;SHT30;67471;44.918;8.614;2024-01-30T05:42:24;2.25;85.95
77056;SHT30;67471;44.918;8.614;2024-01-30T05:45:28;2.23;85.21
77056;SHT30;67471;44.918;8.614;2024-01-30T05:48:31;2.23;85.31
77056;SHT30;67471;44.918;8.614;2024-01-30T05:51:35;2.17;84.93
77056;SHT30;67471;44.918;8.614;2024-01-30T05:54:39;2.17;84.90
77056;SHT30;67471;44.918;8.614;2024-01-30T05:57:42;2.27;83.72
77056;SHT30;67471;44.918;8.614;2024-01-30T06:00:46;2.02;84.57
77056;SHT30;67471;44.918;8.614;2024-01-30T06:03:50;1.91;85.34
77056;SHT30;67471;44.918;8.614;2024-01-30T06:06:54;1.92;85.35
77056;SHT30;67471;44.918;8.614;2024-01-30T06:09:58;1.89;85.35
77056;SHT30;67471;44.918;8.614;2024-01-30T06:13:04;1.79;85.19
77056;SHT30;67471;44.918;8.614;2024-01-30T06:16:09;1.95;85.27
77056;SHT30;67471;44.918;8.614;2024-01-30T06:19:15;1.88;85.40
77056;SHT30;67471;44.918;8.614;2024-01-30T06:22:18;1.82;85.94
77056;SHT30;67471;44.918;8.614;2024-01-30T06:25:23;1.88;86.01
77056;SHT30;67471;44.918;8.614;2024-01-30T06:28:27;1.82;86.78
77056;SHT30;67471;44.918;8.614;2024-01-30T06:31:30;1.88;86.50
77056;SHT30;67471;44.918;8.614;2024-01-30T06:34:34;1.95;85.70
77056;SHT30;67471;44.918;8.614;2024-01-30T06:37:38;1.91;85.61
77056;SHT30;67471;44.918;8.614;2024-01-30T06:40:42;1.88;85.25
77056;SHT30;67471;44.918;8.614;2024-01-30T06:43:46;1.89;85.32
77056;SHT30;67471;44.918;8.614;2024-01-30T06:46:49;1.75;85.79
77056;SHT30;67471;44.918;8.614;2024-01-30T06:49:53;1.77;84.68
77056;SHT30;67471;44.918;8.614;2024-01-30T06:52:57;1.55;85.10
77056;SHT30;67471;44.918;8.614;2024-01-30T06:56:01;1.33;85.08
77056;SHT30;67471;44.918;8.614;2024-01-30T06:59:04;1.38;85.19
77056;SHT30;67471;44.918;8.614;2024-01-30T07:02:09;1.43;85.09
77056;SHT30;67471;44.918;8.614;2024-01-30T07:05:13;1.57;84.95
77056;SHT30;67471;44.918;8.614;2024-01-30T07:08:17;1.58;84.25
77056;SHT30;67471;44.918;8.614;2024-01-30T07:11:21;1.61;83.97
77056;SHT30;67471;44.918;8.614;2024-01-30T07:14:26;1.44;84.99
77056;SHT30;67471;44.918;8.614;2024-01-30T07:17:30;1.51;84.66
77056;SHT30;67471;44.918;8.614;2024-01-30T07:20:34;1.65;84.31
77056;SHT30;67471;44.918;8.614;2024-01-30T07:23:39;1.55;83.75
77056;SHT30;67471;44.918;8.614;2024-01-30T07:26:42;1.62;84.09
77056;SHT30;67471;44.918;8.614;2024-01-30T07:29:46;1.74;82.89
77056;SHT30;67471;44.918;8.614;2024-01-30T07:32:50;1.67;83.34
77056;SHT30;67471;44.918;8.614;2024-01-30T07:35:54;1.81;82.25
77056;SHT30;67471;44.918;8.614;2024-01-30T07:38:57;1.71;82.71
77056;SHT30;67471;44.918;8.614;2024-01-30T07:42:01;1.64;82.95
77056;SHT30;67471;44.918;8.614;2024-01-30T07:45:05;1.67;82.88
77056;SHT30;67471;44.918;8.614;2024-01-30T07:48:09;1.68;83.26
77056;SHT30;67471;44.918;8.614;2024-01-30T07:51:13;1.57;83.23
77056;SHT30;67471;44.918;8.614;2024-01-30T07:54:16;1.48;82.99
77056;SHT30;67471;44.918;8.614;2024-01-30T07:57:20;1.52;82.76
77056;SHT30;67471;44.918;8.614;2024-01-30T08:00:25;1.41;81.77
77056;SHT30;67471;44.918;8.614;2024-01-30T08:03:29;1.23;82.60
77056;SHT30;67471;44.918;8.614;2024-01-30T08:06:33;1.51;82.17
77056;SHT30;67471;44.918;8.614;2024-01-30T08:09:36;1.38;82.43
77056;SHT30;67471;44.918;8.614;2024-01-30T08:12:40;1.40;82.38
77056;SHT30;67471;44.918;8.614;2024-01-30T08:15:44;1.36;82.51
77056;SHT30;67471;44.918;8.614;2024-01-30T08:18:48;1.41;82.53
77056;SHT30;67471;44.918;8.614;2024-01-30T08:21:51;1.40;82.71
77056;SHT30;67471;44.918;8.614;2024-01-30T08:24:55;1.47;81.99
77056;SHT30;67471;44.918;8.614;2024-01-30T08:27:59;1.40;82.88
77056;SHT30;67471;44.918;8.614;2024-01-30T08:31:03;1.47;82.56
77056;SHT30;67471;44.918;8.614;2024-01-30T08:34:07;1.50;82.76
77056;SHT30;67471;44.918;8.614;2024-01-30T08:37:10;1.58;82.29
77056;SHT30;67471;44.918;8.614;2024-01-30T08:40:15;1.67;81.74
77056;SHT30;67471;44.918;8.614;2024-01-30T08:43:18;1.69;82.19
77056;SHT30;67471;44.918;8.614;2024-01-30T08:46:22;1.79;82.28
77056;SHT30;67471;44.918;8.614;2024-01-30T08:49:26;1.67;82.08
77056;SHT30;67471;44.918;8.614;2024-01-30T08:52:30;1.71;83.57
77056;SHT30;67471;44.918;8.614;2024-01-30T08:55:34;1.89;82.68
77056;SHT30;67471;44.918;8.614;2024-01-30T08:58:38;1.86;82.47
77056;SHT30;67471;44.918;8.614;2024-01-30T09:01:42;1.82;82.72
77056;SHT30;67471;44.918;8.614;2024-01-30T09:04:45;1.85;83.11
77056;SHT30;67471;44.918;8.614;2024-01-30T09:07:49;1.98;81.68
77056;SHT30;67471;44.918;8.614;2024-01-30T09:10:53;2.10;80.85
77056;SHT30;67471;44.918;8.614;2024-01-30T09:13:57;2.17;80.11
77056;SHT30;67471;44.918;8.614;2024-01-30T09:17:01;2.15;80.89
77056;SHT30;67471;44.918;8.614;2024-01-30T09:20:06;2.16;81.31
77056;SHT30;67471;44.918;8.614;2024-01-30T09:23:10;2.15;81.59
77056;SHT30;67471;44.918;8.614;2024-01-30T09:26:14;2.22;81.05
77056;SHT30;67471;44.918;8.614;2024-01-30T09:29:18;2.19;81.22
77056;SHT30;67471;44.918;8.614;2024-01-30T09:32:22;2.25;81.14
77056;SHT30;67471;44.918;8.614;2024-01-30T09:35:25;2.16;81.30
77056;SHT30;67471;44.918;8.614;2024-01-30T09:38:29;2.08;82.20
77056;SHT30;67471;44.918;8.614;2024-01-30T09:41:46;2.25;81.22
77056;SHT30;67471;44.918;8.614;2024-01-30T09:44:53;2.29;81.74
77056;SHT30;67471;44.918;8.614;2024-01-30T09:47:59;2.46;81.47
77056;SHT30;67471;44.918;8.614;2024-01-30T09:51:03;2.57;80.98
77056;SHT30;67471;44.918;8.614;2024-01-30T09:54:08;2.58;81.26
77056;SHT30;67471;44.918;8.614;2024-01-30T09:57:13;2.78;81.00
77056;SHT30;67471;44.918;8.614;2024-01-30T10:00:17;2.78;81.75
77056;SHT30;67471;44.918;8.614;2024-01-30T10:03:21;3.01;82.20
77056;SHT30;67471;44.918;8.614;2024-01-30T10:06:24;3.15;81.27
77056;SHT30;67471;44.918;8.614;2024-01-30T10:09:31;3.49;79.71
77056;SHT30;67471;44.918;8.614;2024-01-30T10:12:35;3.79;78.42
77056;SHT30;67471;44.918;8.614;2024-01-30T10:15:39;3.69;78.00
77056;SHT30;67471;44.918;8.614;2024-01-30T10:18:44;3.62;78.63
77056;SHT30;67471;44.918;8.614;2024-01-30T10:21:48;4.04;77.77
77056;SHT30;67471;44.918;8.614;2024-01-30T10:24:51;4.14;77.43
77056;SHT30;67471;44.918;8.614;2024-01-30T10:27:55;4.42;77.00
77056;SHT30;67471;44.918;8.614;2024-01-30T10:30:59;4.34;77.23
77056;SHT30;67471;44.918;8.614;2024-01-30T10:34:03;4.35;77.10
77056;SHT30;67471;44.918;8.614;2024-01-30T10:37:09;4.45;77.14
77056;SHT30;67471;44.918;8.614;2024-01-30T10:40:16;4.39;76.79
77056;SHT30;67471;44.918;8.614;2024-01-30T10:43:21;4.25;77.35
77056;SHT30;67471;44.918;8.614;2024-01-30T10:46:30;4.28;78.04
77056;SHT30;67471;44.918;8.614;2024-01-30T10:49:35;4.44;77.24
77056;SHT30;67471;44.918;8.614;2024-01-30T10:52:40;4.34;77.14
77056;SHT30;67471;44.918;8.614;2024-01-30T10:55:47;4.42;77.24
77056;SHT30;67471;44.918;8.614;2024-01-30T10:58:53;4.59;77.09
77056;SHT30;67471;44.918;8.614;2024-01-30T11:01:58;4.52;77.43
77056;SHT30;67471;44.918;8.614;2024-01-30T11:05:04;4.45;77.88
77056;SHT30;67471;44.918;8.614;2024-01-30T11:08:14;4.55;78.05
77056;SHT30;67471;44.918;8.614;2024-01-30T11:11:18;4.75;77.46
77056;SHT30;67471;44.918;8.614;2024-01-30T11:14:26;4.94;76.98
77056;SHT30;67471;44.918;8.614;2024-01-30T11:20:52;5.17;76.65
77056;SHT30;67471;44.918;8.614;2024-01-30T11:23:56;5.28;76.69
77056;SHT30;67471;44.918;8.614;2024-01-30T11:27:01;5.24;76.97
77056;SHT30;67471;44.918;8.614;2024-01-30T11:30:06;5.09;77.40
77056;SHT30;67471;44.918;8.614;2024-01-30T11:33:12;5.00;78.10
77056;SHT30;67471;44.918;8.614;2024-01-30T11:36:16;4.91;79.25
77056;SHT30;67471;44.918;8.614;2024-01-30T11:39:20;5.17;79.01
77056;SHT30;67471;44.918;8.614;2024-01-30T11:42:26;5.26;78.86
77056;SHT30;67471;44.918;8.614;2024-01-30T11:45:31;5.27;78.39
77056;SHT30;67471;44.918;8.614;2024-01-30T11:48:35;5.47;78.04
77056;SHT30;67471;44.918;8.614;2024-01-30T11:51:39;5.56;77.96
77056;SHT30;67471;44.918;8.614;2024-01-30T11:54:43;5.34;78.38
77056;SHT30;67471;44.918;8.614;2024-01-30T11:57:46;5.30;78.89
77056;SHT30;67471;44.918;8.614;2024-01-30T12:00:55;5.45;78.51
77056;SHT30;67471;44.918;8.614;2024-01-30T12:03:59;5.63;78.59
77056;SHT30;67471;44.918;8.614;2024-01-30T12:07:03;5.66;78.56
77056;SHT30;67471;44.918;8.614;2024-01-30T12:10:08;5.73;78.51
77056;SHT30;67471;44.918;8.614;2024-01-30T12:13:14;5.58;79.33
77056;SHT30;67471;44.918;8.614;2024-01-30T12:16:17;5.75;79.11
77056;SHT30;67471;44.918;8.614;2024-01-30T12:19:24;5.80;78.88
77056;SHT30;67471;44.918;8.614;2024-01-30T12:22:28;5.95;78.72
77056;SHT30;67471;44.918;8.614;2024-01-30T12:25:32;6.17;78.18
77056;SHT30;67471;44.918;8.614;2024-01-30T12:28:36;6.38;78.22
77056;SHT30;67471;44.918;8.614;2024-01-30T12:31:42;6.38;78.11
77056;SHT30;67471;44.918;8.614;2024-01-30T12:34:45;6.48;77.96
77056;SHT30;67471;44.918;8.614;2024-01-30T12:37:49;6.77;77.44
77056;SHT30;67471;44.918;8.614;2024-01-30T12:40:54;6.79;77.45
77056;SHT30;67471;44.918;8.614;2024-01-30T12:43:59;6.89;77.42
77056;SHT30;67471;44.918;8.614;2024-01-30T12:47:03;7.20;77.03
77056;SHT30;67471;44.918;8.614;2024-01-30T12:50:07;7.34;76.48
77056;SHT30;67471;44.918;8.614;2024-01-30T12:53:11;7.34;76.29
77056;SHT30;67471;44.918;8.614;2024-01-30T12:56:16;7.42;76.38
77056;SHT30;67471;44.918;8.614;2024-01-30T12:59:19;7.37;76.19
77056;SHT30;67471;44.918;8.614;2024-01-30T13:02:23;7.73;75.77
77056;SHT30;67471;44.918;8.614;2024-01-30T13:05:27;7.84;74.98
77056;SHT30;67471;44.918;8.614;2024-01-30T13:08:31;7.88;75.27
77056;SHT30;67471;44.918;8.614;2024-01-30T13:11:35;7.92;74.19
77056;SHT30;67471;44.918;8.614;2024-01-30T13:14:39;8.16;73.56
77056;SHT30;67471;44.918;8.614;2024-01-30T13:17:43;8.29;73.38
77056;SHT30;67471;44.918;8.614;2024-01-30T13:20:47;8.48;73.91
77056;SHT30;67471;44.918;8.614;2024-01-30T13:23:51;8.60;73.46
77056;SHT30;67471;44.918;8.614;2024-01-30T13:26:57;8.80;72.91
77056;SHT30;67471;44.918;8.614;2024-01-30T13:30:01;8.87;71.97
77056;SHT30;67471;44.918;8.614;2024-01-30T13:33:05;9.03;70.26
77056;SHT30;67471;44.918;8.614;2024-01-30T13:36:10;9.00;69.23
77056;SHT30;67471;44.918;8.614;2024-01-30T13:39:14;9.10;68.48
77056;SHT30;67471;44.918;8.614;2024-01-30T13:42:18;9.14;68.44
77056;SHT30;67471;44.918;8.614;2024-01-30T13:45:22;9.20;68.29
77056;SHT30;67471;44.918;8.614;2024-01-30T13:48:26;9.11;68.44
77056;SHT30;67471;44.918;8.614;2024-01-30T13:51:30;9.12;68.96
77056;SHT30;67471;44.918;8.614;2024-01-30T13:54:34;9.05;68.19
77056;SHT30;67471;44.918;8.614;2024-01-30T13:57:38;8.97;69.23
77056;SHT30;67471;44.918;8.614;2024-01-30T14:00:41;9.01;69.19
77056;SHT30;67471;44.918;8.614;2024-01-30T14:03:45;9.11;69.34
77056;SHT30;67471;44.918;8.614;2024-01-30T14:06:49;9.25;69.37
77056;SHT30;67471;44.918;8.614;2024-01-30T14:09:52;9.34;69.39
77056;SHT30;67471;44.918;8.614;2024-01-30T14:12:56;9.20;69.59
77056;SHT30;67471;44.918;8.614;2024-01-30T14:16:00;9.28;68.78
77056;SHT30;67471;44.918;8.614;2024-01-30T14:19:04;9.32;68.42
77056;SHT30;67471;44.918;8.614;2024-01-30T14:22:08;9.46;67.58
77056;SHT30;67471;44.918;8.614;2024-01-30T14:25:11;9.52;67.92
77056;SHT30;67471;44.918;8.614;2024-01-30T14:28:15;9.66;67.45
77056;SHT30;67471;44.918;8.614;2024-01-30T14:31:19;9.79;66.97
77056;SHT30;67471;44.918;8.614;2024-01-30T14:34:24;9.53;67.29
77056;SHT30;67471;44.918;8.614;2024-01-30T14:37:28;9.68;66.91
77056;SHT30;67471;44.918;8.614;2024-01-30T14:40:33;9.56;67.11
77056;SHT30;67471;44.918;8.614;2024-01-30T14:43:37;9.53;67.50
77056;SHT30;67471;44.918;8.614;2024-01-30T14:46:41;9.22;68.48
77056;SHT30;67471;44.918;8.614;2024-01-30T14:49:45;9.27;68.46
77056;SHT30;67471;44.918;8.614;2024-01-30T14:52:48;9.28;68.87
77056;SHT30;67471;44.918;8.614;2024-01-30T14:55:52;9.27;69.28
77056;SHT30;67471;44.918;8.614;2024-01-30T14:58:56;9.38;69.32
77056;SHT30;67471;44.918;8.614;2024-01-30T15:02:00;9.42;69.62
77056;SHT30;67471;44.918;8.614;2024-01-30T15:05:04;9.30;70.55
77056;SHT30;67471;44.918;8.614;2024-01-30T15:08:08;9.28;70.70
77056;SHT30;67471;44.918;8.614;2024-01-30T15:11:12;9.27;71.52
77056;SHT30;67471;44.918;8.614;2024-01-30T15:14:16;9.22;71.87
77056;SHT30;67471;44.918;8.614;2024-01-30T15:17:19;9.25;71.57
77056;SHT30;67471;44.918;8.614;2024-01-30T15:20:26;9.15;71.95
77056;SHT30;67471;44.918;8.614;2024-01-30T15:23:30;9.08;72.70
77056;SHT30;67471;44.918;8.614;2024-01-30T15:26:34;8.87;74.02
77056;SHT30;67471;44.918;8.614;2024-01-30T15:29:37;8.99;74.01
77056;SHT30;67471;44.918;8.614;2024-01-30T15:32:43;8.85;74.98
77056;SHT30;67471;44.918;8.614;2024-01-30T15:35:46;8.74;75.63
77056;SHT30;67471;44.918;8.614;2024-01-30T15:38:50;8.74;76.04
77056;SHT30;67471;44.918;8.614;2024-01-30T15:41:54;8.80;76.15
77056;SHT30;67471;44.918;8.614;2024-01-30T15:44:58;8.62;76.87
77056;SHT30;67471;44.918;8.614;2024-01-30T15:48:02;8.54;77.24
77056;SHT30;67471;44.918;8.614;2024-01-30T15:51:06;8.46;77.65
77056;SHT30;67471;44.918;8.614;2024-01-30T15:54:10;8.35;78.20
77056;SHT30;67471;44.918;8.614;2024-01-30T15:57:13;8.21;78.72
77056;SHT30;67471;44.918;8.614;2024-01-30T16:00:17;7.99;79.53
77056;SHT30;67471;44.918;8.614;2024-01-30T16:03:21;7.80;80.32
77056;SHT30;67471;44.918;8.614;2024-01-30T16:06:25;7.81;80.27
77056;SHT30;67471;44.918;8.614;2024-01-30T16:09:29;7.59;80.93
77056;SHT30;67471;44.918;8.614;2024-01-30T16:12:33;7.57;80.81
77056;SHT30;67471;44.918;8.614;2024-01-30T16:15:37;7.53;80.64
77056;SHT30;67471;44.918;8.614;2024-01-30T16:18:43;7.39;81.17
77056;SHT30;67471;44.918;8.614;2024-01-30T16:21:46;7.22;81.70
77056;SHT30;67471;44.918;8.614;2024-01-30T16:24:50;6.98;82.27
77056;SHT30;67471;44.918;8.614;2024-01-30T16:27:53;6.79;83.53
77056;SHT30;67471;44.918;8.614;2024-01-30T16:30:57;6.96;82.64
77056;SHT30;67471;44.918;8.614;2024-01-30T16:34:03;6.89;82.64
77056;SHT30;67471;44.918;8.614;2024-01-30T16:37:07;6.89;82.61
77056;SHT30;67471;44.918;8.614;2024-01-30T16:40:11;6.82;82.67
77056;SHT30;67471;44.918;8.614;2024-01-30T16:43:15;6.84;82.53
77056;SHT30;67471;44.918;8.614;2024-01-30T16:46:19;6.75;82.71
77056;SHT30;67471;44.918;8.614;2024-01-30T16:49:25;6.65;82.62
77056;SHT30;67471;44.918;8.614;2024-01-30T16:52:30;6.63;82.72
77056;SHT30;67471;44.918;8.614;2024-01-30T16:55:33;6.57;82.99
77056;SHT30;67471;44.918;8.614;2024-01-30T16:58:37;6.44;83.10
77056;SHT30;67471;44.918;8.614;2024-01-30T17:01:41;6.24;83.84
77056;SHT30;67471;44.918;8.614;2024-01-30T17:04:50;6.37;83.36
77056;SHT30;67471;44.918;8.614;2024-01-30T17:07:54;6.34;83.39
77056;SHT30;67471;44.918;8.614;2024-01-30T17:10:58;6.33;83.45
77056;SHT30;67471;44.918;8.614;2024-01-30T17:14:02;6.33;83.49
77056;SHT30;67471;44.918;8.614;2024-01-30T17:17:06;6.45;82.78
77056;SHT30;67471;44.918;8.614;2024-01-30T17:20:10;6.45;82.45
77056;SHT30;67471;44.918;8.614;2024-01-30T17:23:14;6.27;82.63
77056;SHT30;67471;44.918;8.614;2024-01-30T17:26:18;6.37;82.69
77056;SHT30;67471;44.918;8.614;2024-01-30T17:29:24;6.19;83.37
77056;SHT30;67471;44.918;8.614;2024-01-30T17:32:27;6.29;82.50
77056;SHT30;67471;44.918;8.614;2024-01-30T17:35:31;6.31;82.92
77056;SHT30;67471;44.918;8.614;2024-01-30T17:38:35;6.37;82.63
77056;SHT30;67471;44.918;8.614;2024-01-30T17:41:39;6.38;82.43
77056;SHT30;67471;44.918;8.614;2024-01-30T17:44:43;6.41;82.24
77056;SHT30;67471;44.918;8.614;2024-01-30T17:47:47;6.29;82.43
77056;SHT30;67471;44.918;8.614;2024-01-30T17:50:50;6.36;82.12
77056;SHT30;67471;44.918;8.614;2024-01-30T17:53:55;6.34;82.06
77056;SHT30;67471;44.918;8.614;2024-01-30T17:56:59;6.34;82.15
77056;SHT30;67471;44.918;8.614;2024-01-30T18:00:03;6.36;81.83
77056;SHT30;67471;44.918;8.614;2024-01-30T18:03:10;6.30;82.20
77056;SHT30;67471;44.918;8.614;2024-01-30T18:06:14;6.37;82.20
77056;SHT30;67471;44.918;8.614;2024-01-30T18:09:23;6.36;82.31
77056;SHT30;67471;44.918;8.614;2024-01-30T18:12:27;6.31;82.42
77056;SHT30;67471;44.918;8.614;2024-01-30T18:15:31;6.27;82.60
77056;SHT30;67471;44.918;8.614;2024-01-30T18:18:35;6.31;82.75
77056;SHT30;67471;44.918;8.614;2024-01-30T18:21:39;6.33;82.51
77056;SHT30;67471;44.918;8.614;2024-01-30T18:24:43;6.36;82.21
77056;SHT30;67471;44.918;8.614;2024-01-30T18:27:47;6.30;82.01
77056;SHT30;67471;44.918;8.614;2024-01-30T18:30:51;6.29;81.87
77056;SHT30;67471;44.918;8.614;2024-01-30T18:33:54;6.33;81.46
77056;SHT30;67471;44.918;8.614;2024-01-30T18:36:58;6.29;81.39
77056;SHT30;67471;44.918;8.614;2024-01-30T18:40:04;6.27;81.34
77056;SHT30;67471;44.918;8.614;2024-01-30T18:43:08;6.30;81.12
77056;SHT30;67471;44.918;8.614;2024-01-30T18:46:12;6.26;81.21
77056;SHT30;67471;44.918;8.614;2024-01-30T18:49:16;6.27;81.26
77056;SHT30;67471;44.918;8.614;2024-01-30T18:52:19;6.19;81.53
77056;SHT30;67471;44.918;8.614;2024-01-30T18:55:25;6.19;81.66
77056;SHT30;67471;44.918;8.614;2024-01-30T18:58:28;6.23;81.31
77056;SHT30;67471;44.918;8.614;2024-01-30T19:01:32;6.16;81.46
77056;SHT30;67471;44.918;8.614;2024-01-30T19:04:36;6.16;81.71
77056;SHT30;67471;44.918;8.614;2024-01-30T19:07:40;6.17;81.63
77056;SHT30;67471;44.918;8.614;2024-01-30T19:10:44;6.17;81.81
77056;SHT30;67471;44.918;8.614;2024-01-30T19:13:52;6.19;82.02
77056;SHT30;67471;44.918;8.614;2024-01-30T19:16:56;6.24;81.97
77056;SHT30;67471;44.918;8.614;2024-01-30T19:20:00;6.21;82.07
77056;SHT30;67471;44.918;8.614;2024-01-30T19:23:05;6.21;81.85
77056;SHT30;67471;44.918;8.614;2024-01-30T19:26:08;6.24;81.46
77056;SHT30;67471;44.918;8.614;2024-01-30T19:29:12;6.20;81.62
77056;SHT30;67471;44.918;8.614;2024-01-30T19:32:16;6.16;81.53
77056;SHT30;67471;44.918;8.614;2024-01-30T19:35:21;6.19;81.56
77056;SHT30;67471;44.918;8.614;2024-01-30T19:38:25;6.19;81.60
77056;SHT30;67471;44.918;8.614;2024-01-30T19:41:29;6.21;81.31
77056;SHT30;67471;44.918;8.614;2024-01-30T19:44:33;6.19;81.18